Detall de PIREP

Printer-friendly versionPDF version

[2008/08/05 06:34:00]
Flight IATA:CT1005
Pilot Number:026
Company ICAO:CAT
Aircraft Type:B75F/E
PAX:0
Departing Airport: LKKV
Destination Airport: LIEA
Alternate Airport:LIEO
Online: VATSIM
Route:OKG UN869 NATOR UN850 ABRON UT250 VAREK UM623 PELOS
Flight Level:FL330
No Slew and time accel
No pause
Crash detect
Detect pilot in Cockpit between each 30 and 45 minutes
06:34 Zero fuel Weight: 231581 Lbs, Fuel Weight: 23483 Lbs
06:34 VATSIM:LKKV 050600Z 26008KT 210V300 9999 FEW023 14/09 Q1015
06:34 VATSIM:LIEA 050550Z VRB01KT CAVOK 21/18 Q1015
06:35 VOICE CATALONIAN / EU TOUR
06:37 Parking Brakes off
06:43 Take-off
06:43 Take off Weight: 253910 Lbs
06:43 Wind: 000º @ 000 Knots Heading: 112º
06:43 POS N50º 11´ 56´´ E012º 55´ 48´´
06:43 Gear Up: 176 Knots
06:43 Flaps:3 at 176 Knots
06:43 Flaps:2 at 188 Knots
06:45 Flaps:1 at 212 Knots
06:45 Flaps:0 at 212 Knots
06:58
Wind:000º@000 Knots Heading: 225º Ground Speed: 322 Knots Altitude 23894 ft
07:13 Wind:247º@024 Knots Heading: 231º Ground Speed: 431 Knots Altitude 32290 ft
07:18 TOC
07:18 Fuel Weight: 13884 Lb
07:28 Wind:120º@016 Knots Heading: 172º Ground Speed: 461 Knots Altitude 33169 ft
07:43 Wind:278º@000 Knots Heading: 175º Ground Speed: 476 Knots Altitude 32939 ft
07:58 Wind:058º@005 Knots Heading: 198º Ground Speed: 482 Knots Altitude 32979 ft
08:03 TOD
08:03 Fuel Weight: 7156 Lb
08:13 Wind:232º@016 Knots Heading: 175º Ground Speed: 382 Knots Altitude 18599 ft
08:25 Gear Down: 199 Knots
08:25 Flaps:1 at 200 Knots
08:26 Flaps:2 at 193 Knots
08:27 TouchDown:Rate -635 ft/min Speed: 175 Knots
08:27 VATSIM:LIEA 050750Z 26004KT 230V330 CAVOK 27/22 Q1015
08:27 Land
08:27 Wind:285º@006 Knots
08:27 Heading: 203º
08:27 Flight Duration: 01:44
08:27 Landing Weight: 237125 Lb
s
08:27 POS N40º 37´ 58´´ E008º 17´ 28´´
08:30 Parking brakes on
08:30 Block to Block Duration: 01:53
08:30 Final Fuel: 5169 Lbls
08:30 Spent Fuel: 18313 Lbls
08:30 Flight Length: 688 NM
08:30 TOD Land Length: 136 NM

Exportar CSV

Powered by Drupal - Modified by Danger4k